Time;durP1;ratioP1;P1;durP2;ratioP2;P2;SDS_P1;SDS_P2;PMS_P1;PMS_P2;Temp;Humidity;BMP_temperature;BMP_pressure;BME280_temperature;BME280_humidity;BME280_pressure;Samples;Min_cycle;Max_cycle;Signal;HPM_P1;HPM_P2
2022/05/22 00:00:01;;;;;;;7.00;4.60;;;25.80;46.20;;;;;;4922579;28;89500;-72
2022/05/22 00:02:30;;;;;;;7.87;4.40;;;25.80;46.20;;;;;;4918489;28;88437;-72
2022/05/22 00:04:59;;;;;;;8.90;5.10;;;25.80;46.30;;;;;;4923106;28;89019;-73
2022/05/22 00:07:27;;;;;;;9.67;5.00;;;25.80;46.40;;;;;;4923631;28;90156;-72
2022/05/22 00:09:55;;;;;;;6.50;4.70;;;25.80;46.40;;;;;;4921349;28;89084;-72
2022/05/22 00:12:23;;;;;;;8.57;4.33;;;25.70;46.40;;;;;;4918120;28;90914;-73
2022/05/22 00:14:51;;;;;;;6.47;4.20;;;25.70;46.40;;;;;;4920750;28;88669;-72
2022/05/22 00:17:19;;;;;;;7.77;4.63;;;25.70;46.40;;;;;;4919782;28;90575;-72
2022/05/22 00:19:48;;;;;;;5.87;3.53;;;25.80;46.50;;;;;;4921081;28;90042;-72
2022/05/22 00:22:17;;;;;;;7.80;3.87;;;25.70;46.40;;;;;;4920889;28;89323;-72
2022/05/22 00:24:45;;;;;;;5.70;3.73;;;25.70;46.50;;;;;;4921667;28;88564;-73
2022/05/22 00:27:13;;;;;;;8.63;4.50;;;25.70;46.50;;;;;;4919847;28;89588;-73
2022/05/22 00:29:41;;;;;;;7.70;3.73;;;25.70;46.40;;;;;;4917820;28;89475;-73
2022/05/22 00:32:09;;;;;;;7.40;4.17;;;25.70;46.40;;;;;;4919791;28;92165;-73
2022/05/22 00:34:37;;;;;;;6.53;4.03;;;25.60;46.40;;;;;;4920828;28;88377;-73
2022/05/22 00:37:06;;;;;;;5.20;3.93;;;25.60;46.30;;;;;;4921428;28;91773;-73
2022/05/22 00:39:35;;;;;;;7.37;3.83;;;25.60;46.30;;;;;;4918419;28;89206;-72
2022/05/22 00:42:13;;;;;;;7.00;4.13;;;25.60;46.40;;;;;;4920537;28;88913;-72
2022/05/22 00:44:41;;;;;;;5.67;3.77;;;25.60;46.40;;;;;;4920490;28;88643;-72
2022/05/22 00:47:09;;;;;;;7.07;3.43;;;25.60;46.40;;;;;;4921150;28;90670;-73
2022/05/22 00:49:41;;;;;;;6.83;3.80;;;25.60;46.40;;;;;;4916338;28;88854;-73
2022/05/22 00:52:12;;;;;;;4.77;3.20;;;25.60;46.40;;;;;;4919832;28;88854;-72
2022/05/22 00:54:46;;;;;;;5.10;3.23;;;25.60;46.50;;;;;;4920307;28;88703;-72
2022/05/22 00:57:16;;;;;;;4.70;3.50;;;25.60;46.50;;;;;;4923317;28;90639;-72
2022/05/22 00:59:47;;;;;;;5.17;3.17;;;25.60;46.50;;;;;;4925609;28;90184;-73
2022/05/22 01:02:15;;;;;;;4.40;2.73;;;25.60;46.60;;;;;;4921484;28;88349;-72
2022/05/22 01:04:44;;;;;;;4.50;3.53;;;25.60;46.60;;;;;;4926351;28;88484;-72
2022/05/22 01:07:13;;;;;;;4.03;3.03;;;25.60;47.30;;;;;;4920762;28;89565;-72
2022/05/22 01:09:42;;;;;;;5.07;2.37;;;25.60;46.60;;;;;;4924944;28;88566;-73
2022/05/22 01:12:13;;;;;;;3.53;2.77;;;25.60;46.60;;;;;;4923493;28;88549;-72
2022/05/22 01:14:41;;;;;;;4.50;2.50;;;25.50;46.50;;;;;;4923034;28;88649;-72
2022/05/22 01:17:10;;;;;;;3.67;2.60;;;25.50;46.60;;;;;;4925314;28;90734;-72
2022/05/22 01:19:38;;;;;;;2.67;2.30;;;25.50;47.20;;;;;;4924010;28;90038;-72
2022/05/22 01:22:08;;;;;;;5.83;2.30;;;25.50;46.60;;;;;;4924505;28;88626;-72
2022/05/22 01:24:36;;;;;;;5.23;2.90;;;25.50;46.60;;;;;;4920354;28;88674;-73
2022/05/22 01:27:07;;;;;;;3.77;2.83;;;25.50;46.50;;;;;;4923983;28;90043;-73
2022/05/22 01:29:38;;;;;;;4.83;2.40;;;25.50;46.50;;;;;;4921714;28;89268;-73
2022/05/22 01:32:07;;;;;;;3.43;2.37;;;25.50;46.40;;;;;;4923205;28;88905;-72
2022/05/22 01:34:35;;;;;;;4.13;2.60;;;25.50;46.40;;;;;;4921160;28;88783;-73
2022/05/22 01:37:03;;;;;;;5.53;3.00;;;25.50;46.40;;;;;;4923345;28;93795;-73
2022/05/22 01:39:32;;;;;;;6.03;2.90;;;25.50;46.40;;;;;;4923531;28;92086;-73
2022/05/22 01:42:00;;;;;;;5.20;2.53;;;25.60;46.40;;;;;;4919821;28;88404;-72
2022/05/22 01:44:28;;;;;;;3.00;2.60;;;25.50;46.40;;;;;;4922246;28;88532;-72
2022/05/22 01:46:56;;;;;;;3.03;2.13;;;25.50;46.40;;;;;;4924401;28;89301;-72
2022/05/22 01:49:24;;;;;;;3.77;2.40;;;25.40;46.40;;;;;;4922693;28;91259;-72
2022/05/22 01:51:52;;;;;;;3.90;2.37;;;25.40;46.40;;;;;;4922842;28;88857;-72
2022/05/22 01:54:20;;;;;;;2.93;2.00;;;25.40;46.40;;;;;;4925194;28;88537;-72
2022/05/22 01:56:50;;;;;;;2.57;2.10;;;25.40;46.40;;;;;;4925404;28;91582;-72
2022/05/22 01:59:18;;;;;;;4.50;2.47;;;25.40;46.50;;;;;;4921543;28;93247;-73
2022/05/22 02:01:46;;;;;;;4.90;2.47;;;25.40;46.40;;;;;;4922904;28;88610;-73
2022/05/22 02:04:14;;;;;;;3.37;1.70;;;25.40;46.50;;;;;;4921622;28;88667;-72
2022/05/22 02:09:24;;;;;;;2.60;2.27;;;25.40;46.50;;;;;;4923627;28;89251;-73
2022/05/22 02:11:53;;;;;;;2.20;2.00;;;25.40;46.50;;;;;;4921931;28;91926;-72
2022/05/22 02:14:21;;;;;;;2.33;1.90;;;25.40;46.50;;;;;;4919452;28;88644;-73
2022/05/22 02:16:49;;;;;;;3.57;2.00;;;25.40;46.50;;;;;;4921851;28;89883;-72
2022/05/22 02:19:17;;;;;;;2.83;1.83;;;25.40;46.50;;;;;;4922498;28;90126;-73
2022/05/22 02:21:45;;;;;;;2.93;2.10;;;25.40;46.50;;;;;;4923222;28;90697;-73
2022/05/22 02:24:13;;;;;;;2.77;1.80;;;25.20;46.40;;;;;;4919292;28;88422;-72
2022/05/22 02:26:41;;;;;;;2.33;1.57;;;25.30;46.40;;;;;;4921706;28;88979;-72
2022/05/22 02:29:10;;;;;;;2.07;1.60;;;25.30;46.40;;;;;;4921561;28;90575;-73
2022/05/22 02:31:38;;;;;;;2.07;1.87;;;25.30;46.40;;;;;;4920536;28;89108;-72
2022/05/22 02:34:07;;;;;;;4.63;2.00;;;25.30;46.40;;;;;;4921685;28;88699;-73
2022/05/22 02:36:34;;;;;;;4.27;1.70;;;25.30;46.40;;;;;;4923770;28;92333;-72
2022/05/22 02:39:02;;;;;;;2.53;1.60;;;25.30;46.30;;;;;;4923519;28;89851;-72
2022/05/22 02:41:30;;;;;;;3.97;1.97;;;25.30;46.40;;;;;;4922607;28;89307;-73
2022/05/22 02:43:58;;;;;;;2.60;1.60;;;25.30;46.40;;;;;;4922420;28;88539;-73
2022/05/22 02:46:28;;;;;;;2.30;1.70;;;25.30;46.40;;;;;;4923415;28;90669;-72
2022/05/22 02:48:56;;;;;;;2.30;1.57;;;25.20;46.20;;;;;;4919991;28;90282;-72
2022/05/22 02:51:24;;;;;;;2.43;1.67;;;25.20;46.30;;;;;;4939041;28;88698;-72
2022/05/22 02:53:52;;;;;;;2.80;1.87;;;25.30;46.40;;;;;;4927453;28;88663;-72
2022/05/22 02:56:21;;;;;;;2.50;1.70;;;25.20;46.40;;;;;;4923936;28;92167;-72
2022/05/22 02:58:49;;;;;;;3.10;2.03;;;25.20;46.50;;;;;;4922790;28;88907;-72
2022/05/22 03:01:17;;;;;;;2.90;1.93;;;25.20;46.50;;;;;;4938201;28;89983;-72
2022/05/22 03:03:46;;;;;;;4.83;1.90;;;25.20;46.50;;;;;;4935085;28;88568;-72
2022/05/22 03:09:00;;;;;;;3.00;2.07;;;25.20;46.50;;;;;;4942351;28;90263;-72
2022/05/22 03:11:28;;;;;;;3.70;1.80;;;25.20;46.50;;;;;;4924377;28;89162;-72
2022/05/22 03:13:56;;;;;;;3.10;1.40;;;25.20;46.50;;;;;;4922225;28;88500;-72
2022/05/22 03:16:24;;;;;;;2.20;1.40;;;25.20;46.50;;;;;;4925860;28;90021;-72
2022/05/22 03:18:54;;;;;;;3.93;2.07;;;25.20;46.50;;;;;;4926006;28;88839;-72
2022/05/22 03:21:22;;;;;;;3.73;1.80;;;25.20;46.50;;;;;;4937438;28;88793;-72
2022/05/22 03:23:50;;;;;;;1.60;1.30;;;25.20;46.40;;;;;;4922596;28;89438;-72
2022/05/22 03:26:18;;;;;;;1.83;1.37;;;25.20;46.40;;;;;;4922360;28;89432;-73
2022/05/22 03:28:46;;;;;;;3.07;1.30;;;25.20;46.50;;;;;;4933718;28;88623;-72
2022/05/22 03:31:16;;;;;;;1.97;1.53;;;25.20;46.50;;;;;;4926231;28;89173;-72
2022/05/22 03:33:44;;;;;;;2.43;1.70;;;25.20;46.40;;;;;;4921337;28;88433;-72
2022/05/22 03:36:14;;;;;;;1.77;1.57;;;25.10;46.40;;;;;;4925296;28;90553;-72
2022/05/22 03:38:42;;;;;;;3.23;2.00;;;25.10;46.40;;;;;;4902335;28;89424;-72
2022/05/22 03:41:10;;;;;;;1.70;1.57;;;25.20;46.50;;;;;;4931292;28;88889;-72
2022/05/22 03:43:38;;;;;;;3.83;1.73;;;25.10;46.50;;;;;;4931343;28;88723;-72
2022/05/22 03:46:06;;;;;;;5.30;2.03;;;25.10;46.50;;;;;;4922438;28;88871;-72
2022/05/22 03:48:34;;;;;;;4.60;1.80;;;25.10;46.50;;;;;;4921803;28;90174;-72
2022/05/22 03:51:05;;;;;;;5.47;1.50;;;25.10;46.50;;;;;;4931791;28;88462;-70
2022/05/22 03:53:34;;;;;;;1.77;1.50;;;25.10;46.50;;;;;;4934496;28;88587;-72
2022/05/22 03:56:10;;;;;;;3.03;1.90;;;25.10;46.50;;;;;;4921843;28;90056;-72
2022/05/22 03:58:38;;;;;;;3.70;1.93;;;25.00;46.50;;;;;;4921891;28;93329;-72
2022/05/22 04:01:06;;;;;;;2.80;1.80;;;25.10;46.50;;;;;;4934425;28;88286;-73
2022/05/22 04:03:35;;;;;;;2.90;1.40;;;25.10;46.50;;;;;;4932196;28;88651;-72
2022/05/22 04:06:03;;;;;;;2.40;1.40;;;25.10;46.50;;;;;;4922599;28;89463;-72
2022/05/22 04:08:31;;;;;;;2.50;1.77;;;25.10;46.50;;;;;;4920992;28;90029;-72
2022/05/22 04:11:05;;;;;;;4.97;2.10;;;25.10;46.50;;;;;;4921817;28;88950;-72
2022/05/22 04:13:34;;;;;;;2.57;1.53;;;25.10;46.50;;;;;;4921097;28;88610;-72
2022/05/22 04:16:02;;;;;;;3.53;1.70;;;25.10;46.50;;;;;;4922067;28;90825;-72
2022/05/22 04:18:30;;;;;;;2.97;1.60;;;25.10;46.40;;;;;;4921100;28;90044;-72
2022/05/22 04:20:58;;;;;;;2.17;1.40;;;25.10;46.40;;;;;;4926330;28;88506;-72
2022/05/22 04:26:13;;;;;;;2.53;1.23;;;25.10;46.30;;;;;;4927277;28;89645;-72
2022/05/22 04:28:41;;;;;;;3.00;1.90;;;25.10;46.90;;;;;;4939585;28;90108;-72
2022/05/22 04:31:09;;;;;;;1.77;1.30;;;25.20;46.40;;;;;;4924857;28;88826;-72
2022/05/22 04:33:37;;;;;;;1.40;1.27;;;25.20;46.20;;;;;;4924109;28;88486;-73
2022/05/22 04:36:05;;;;;;;3.90;1.53;;;25.30;46.10;;;;;;4926184;28;90340;-72
2022/05/22 04:38:35;;;;;;;2.47;1.40;;;25.40;46.10;;;;;;4924777;28;90074;-73
2022/05/22 04:41:04;;;;;;;1.93;1.73;;;25.50;45.80;;;;;;4935038;28;88594;-72
2022/05/22 04:43:33;;;;;;;3.23;1.40;;;25.80;45.70;;;;;;4924630;28;88481;-72
2022/05/22 04:46:01;;;;;;;1.87;1.30;;;26.00;46.10;;;;;;4937276;28;89583;-72
2022/05/22 04:48:29;;;;;;;2.07;1.40;;;26.20;45.30;;;;;;4943664;28;90035;-72
2022/05/22 04:50:57;;;;;;;4.07;1.90;;;26.20;45.20;;;;;;4940126;28;88537;-69
2022/05/22 04:53:28;;;;;;;2.90;1.57;;;26.10;45.10;;;;;;4925334;28;88631;-70
2022/05/22 04:55:56;;;;;;;1.70;1.37;;;26.10;45.20;;;;;;4924800;28;91040;-69
2022/05/22 04:58:24;;;;;;;2.70;1.33;;;26.00;45.20;;;;;;4928318;28;92825;-69
2022/05/22 05:00:53;;;;;;;2.60;1.43;;;26.10;45.30;;;;;;4934592;28;88696;-68
2022/05/22 05:03:21;;;;;;;1.80;1.30;;;26.00;45.20;;;;;;4904885;28;88594;-69
2022/05/22 05:05:58;;;;;;;1.67;1.27;;;26.00;45.20;;;;;;4913413;28;89527;-70
2022/05/22 05:08:26;;;;;;;1.90;0.90;;;26.00;45.30;;;;;;4924124;28;88924;-69
2022/05/22 05:10:54;;;;;;;5.17;1.40;;;26.00;45.30;;;;;;4930685;28;91880;-69
2022/05/22 05:13:22;;;;;;;2.90;1.17;;;26.00;45.30;;;;;;4927347;28;88468;-68
2022/05/22 05:16:00;;;;;;;1.20;1.00;;;26.00;45.40;;;;;;4939410;28;93463;-71
2022/05/22 05:18:28;;;;;;;2.13;1.30;;;25.90;45.30;;;;;;4939920;28;90161;-69
2022/05/22 05:20:56;;;;;;;2.37;1.33;;;26.00;45.40;;;;;;4925394;28;88982;-68
2022/05/22 05:23:24;;;;;;;2.50;1.27;;;26.00;45.50;;;;;;4921394;28;88639;-68
2022/05/22 05:25:52;;;;;;;2.40;1.57;;;26.00;45.60;;;;;;4937878;28;90568;-68
2022/05/22 05:28:20;;;;;;;2.60;1.50;;;26.00;45.60;;;;;;4943562;28;89045;-69
2022/05/22 05:30:48;;;;;;;1.57;1.03;;;26.00;45.60;;;;;;4943705;28;88576;-69
2022/05/22 05:33:17;;;;;;;1.30;0.90;;;26.00;45.60;;;;;;4925994;28;88570;-69
2022/05/22 05:35:45;;;;;;;2.00;1.30;;;26.00;45.60;;;;;;4927689;28;90595;-69
2022/05/22 05:38:13;;;;;;;1.97;1.03;;;26.10;45.70;;;;;;4942016;28;90142;-69
2022/05/22 05:40:41;;;;;;;2.67;1.00;;;26.10;45.70;;;;;;4942647;28;88375;-69
2022/05/22 05:43:10;;;;;;;1.77;0.83;;;26.10;45.70;;;;;;4925800;28;88636;-69
2022/05/22 05:45:38;;;;;;;2.57;1.30;;;26.10;45.70;;;;;;4923654;28;90062;-70
2022/05/22 05:48:06;;;;;;;1.87;1.13;;;26.10;45.60;;;;;;4922636;28;90012;-69
2022/05/22 05:50:36;;;;;;;1.47;1.10;;;26.20;45.70;;;;;;4922077;28;88588;-69
2022/05/22 05:53:04;;;;;;;1.90;0.80;;;26.10;45.60;;;;;;4922445;28;88647;-69
2022/05/22 05:55:32;;;;;;;2.20;1.00;;;26.10;45.60;;;;;;4922904;28;90841;-69
2022/05/22 05:58:20;;;;;;;1.70;0.97;;;26.10;45.60;;;;;;4922718;28;92029;-69
2022/05/22 06:01:06;;;;;;;1.83;0.97;;;26.10;45.50;;;;;;4922256;28;88913;-69
2022/05/22 06:03:34;;;;;;;1.10;0.80;;;26.10;45.50;;;;;;4921843;28;89685;-69
2022/05/22 06:06:06;;;;;;;1.80;1.00;;;26.10;45.50;;;;;;4921976;28;90476;-69
2022/05/22 06:08:34;;;;;;;2.23;0.77;;;26.10;45.50;;;;;;4922155;28;90069;-69
2022/05/22 06:11:02;;;;;;;2.07;1.13;;;26.10;45.40;;;;;;4922047;28;89014;-69
2022/05/22 06:13:30;;;;;;;2.23;0.83;;;26.20;45.50;;;;;;4919761;28;88706;-69
2022/05/22 06:15:58;;;;;;;1.20;1.10;;;26.20;45.40;;;;;;4922270;28;90652;-69
2022/05/22 06:18:26;;;;;;;0.70;0.70;;;26.20;45.40;;;;;;4922472;28;89962;-69
2022/05/22 06:20:54;;;;;;;2.60;0.80;;;26.20;45.30;;;;;;4922535;28;89890;-67
2022/05/22 06:23:24;;;;;;;1.30;1.07;;;26.20;46.00;;;;;;4922230;28;88587;-69
2022/05/22 06:25:53;;;;;;;2.97;0.87;;;26.20;45.30;;;;;;4922036;28;90812;-69
2022/05/22 06:28:25;;;;;;;0.80;0.80;;;26.20;45.20;;;;;;4951999;28;90401;-67
2022/05/22 06:30:54;;;;;;;1.30;1.00;;;26.20;45.20;;;;;;4919334;28;88430;-69
2022/05/22 06:33:23;;;;;;;1.50;0.83;;;26.20;45.20;;;;;;4921982;28;88655;-69
2022/05/22 06:35:51;;;;;;;2.30;1.13;;;26.20;45.20;;;;;;4918967;28;89513;-68
2022/05/22 06:41:07;;;;;;;2.70;1.20;;;26.20;45.10;;;;;;4891133;28;90021;-67
2022/05/22 06:43:35;;;;;;;1.63;1.33;;;26.20;45.10;;;;;;4921555;28;88640;-67
2022/05/22 06:46:03;;;;;;;1.50;1.40;;;26.30;45.10;;;;;;4922430;28;91432;-69
2022/05/22 06:48:34;;;;;;;2.07;1.13;;;26.20;45.00;;;;;;4923268;28;90126;-69
2022/05/22 06:51:03;;;;;;;1.97;1.40;;;26.20;45.00;;;;;;4921888;28;89691;-69
2022/05/22 06:53:31;;;;;;;4.03;2.00;;;26.20;45.00;;;;;;4921307;28;89427;-69
2022/05/22 06:55:59;;;;;;;3.97;1.60;;;26.30;45.00;;;;;;4921403;28;90747;-69
2022/05/22 06:58:28;;;;;;;3.10;1.93;;;26.20;45.00;;;;;;4921489;28;90143;-69
2022/05/22 07:00:56;;;;;;;2.50;1.90;;;26.20;45.00;;;;;;4921945;28;89052;-69
2022/05/22 07:03:27;;;;;;;3.80;1.53;;;26.20;45.00;;;;;;4921774;28;88559;-67
2022/05/22 07:05:55;;;;;;;4.13;2.37;;;26.20;44.90;;;;;;4921088;28;90721;-67
2022/05/22 07:08:27;;;;;;;3.77;2.30;;;26.20;44.90;;;;;;4921947;28;90242;-69
2022/05/22 07:13:42;;;;;;;2.73;2.23;;;26.30;45.70;;;;;;4920482;28;88651;-67
2022/05/22 07:16:10;;;;;;;3.97;2.53;;;26.30;44.90;;;;;;4921613;28;92020;-69
2022/05/22 07:18:52;;;;;;;8.23;2.43;;;26.30;44.90;;;;;;4920771;28;89902;-67
2022/05/22 07:21:20;;;;;;;6.57;3.17;;;26.30;45.50;;;;;;4921047;28;88798;-67
2022/05/22 07:23:48;;;;;;;4.60;2.73;;;26.30;44.90;;;;;;4913248;28;88675;-67
2022/05/22 07:26:18;;;;;;;5.10;2.63;;;26.30;44.90;;;;;;4917269;28;90615;-69
2022/05/22 07:28:48;;;;;;;5.53;3.43;;;26.30;44.80;;;;;;4919827;28;91344;-67
2022/05/22 07:31:16;;;;;;;5.93;2.80;;;26.30;44.90;;;;;;4920135;28;90902;-67
2022/05/22 07:33:44;;;;;;;5.40;3.23;;;26.30;44.90;;;;;;4920164;28;88528;-67
2022/05/22 07:36:13;;;;;;;6.00;3.40;;;26.30;44.90;;;;;;4917933;28;90580;-67
2022/05/22 07:38:40;;;;;;;6.60;4.00;;;26.30;44.80;;;;;;4920588;28;89584;-68
2022/05/22 07:41:09;;;;;;;7.33;4.63;;;26.30;44.90;;;;;;4920652;28;89325;-67
2022/05/22 07:43:38;;;;;;;11.07;4.53;;;26.30;44.90;;;;;;4917330;28;88489;-67
2022/05/22 07:46:07;;;;;;;8.33;4.67;;;26.30;44.80;;;;;;4919631;28;90589;-67
2022/05/22 07:48:36;;;;;;;11.17;4.73;;;26.30;44.80;;;;;;4916240;28;90727;-67
2022/05/22 07:51:04;;;;;;;7.60;4.53;;;26.20;44.70;;;;;;4917461;28;88651;-67
2022/05/22 07:53:32;;;;;;;10.23;5.63;;;26.20;44.70;;;;;;4917886;28;88581;-69
2022/05/22 07:56:01;;;;;;;7.50;4.53;;;26.20;44.70;;;;;;4915250;28;91245;-69
2022/05/22 07:58:30;;;;;;;9.23;5.20;;;26.20;44.70;;;;;;4919992;28;90551;-69
2022/05/22 08:00:58;;;;;;;9.03;5.03;;;26.20;44.70;;;;;;4920187;28;89945;-69
2022/05/22 08:03:28;;;;;;;9.17;5.30;;;26.20;44.70;;;;;;4920671;28;88359;-69
2022/05/22 08:05:56;;;;;;;12.23;5.77;;;26.20;44.70;;;;;;4918920;28;91712;-69
2022/05/22 08:08:24;;;;;;;8.87;4.93;;;26.20;44.70;;;;;;4919337;28;90042;-69
2022/05/22 08:10:53;;;;;;;8.97;5.33;;;26.20;44.70;;;;;;4919021;28;90365;-69
2022/05/22 08:13:21;;;;;;;10.90;6.03;;;26.20;44.70;;;;;;4918285;28;88476;-69
2022/05/22 08:15:49;;;;;;;9.43;5.50;;;26.20;44.80;;;;;;4910835;28;90744;-69
2022/05/22 08:18:17;;;;;;;9.87;5.60;;;26.20;44.70;;;;;;4907200;28;89376;-69
2022/05/22 08:20:49;;;;;;;9.43;6.10;;;26.20;44.70;;;;;;4912006;28;88794;-69
2022/05/22 08:23:21;;;;;;;8.33;5.90;;;26.20;44.80;;;;;;4917269;28;89183;-69
2022/05/22 08:25:49;;;;;;;10.93;5.87;;;26.20;44.70;;;;;;4918367;28;90697;-69
2022/05/22 08:28:17;;;;;;;9.80;5.77;;;26.20;44.70;;;;;;4916323;28;89088;-69
2022/05/22 08:30:45;;;;;;;8.47;6.10;;;26.20;44.70;;;;;;4916626;28;91903;-69
2022/05/22 08:33:13;;;;;;;9.03;5.67;;;26.20;44.70;;;;;;4914589;28;88508;-69
2022/05/22 08:35:43;;;;;;;11.53;7.23;;;26.20;44.80;;;;;;4914742;28;89435;-69
2022/05/22 08:38:12;;;;;;;11.70;6.00;;;26.20;44.80;;;;;;4913720;28;90391;-69
2022/05/22 08:40:46;;;;;;;10.63;6.43;;;26.20;44.80;;;;;;4913257;28;88859;-69
2022/05/22 08:43:15;;;;;;;10.37;6.03;;;26.20;44.80;;;;;;4906065;28;89164;-69
2022/05/22 08:45:45;;;;;;;14.67;6.90;;;26.20;44.80;;;;;;4915219;28;91168;-69
2022/05/22 08:48:16;;;;;;;12.53;6.87;;;26.20;44.80;;;;;;4916962;28;89061;-69
2022/05/22 08:50:45;;;;;;;12.90;7.10;;;26.20;44.80;;;;;;4913315;28;89684;-69
2022/05/22 08:53:21;;;;;;;11.77;6.63;;;26.10;44.80;;;;;;4905841;28;88644;-69
2022/05/22 08:58:57;;;;;;;8.20;5.80;;;26.10;45.40;;;;;;4904340;28;89057;-69
2022/05/22 09:01:34;;;;;;;8.83;6.40;;;26.10;44.70;;;;;;4906266;28;88669;-69
2022/05/22 09:04:08;;;;;;;13.37;7.13;;;26.10;44.70;;;;;;4906197;28;88603;-70
2022/05/22 09:06:39;;;;;;;11.43;6.97;;;26.10;44.80;;;;;;4906305;28;90055;-70
2022/05/22 09:09:08;;;;;;;9.53;6.67;;;26.10;44.80;;;;;;4905765;28;89394;-69
2022/05/22 09:11:48;;;;;;;11.13;7.27;;;26.10;44.80;;;;;;4906479;28;89555;-69
2022/05/22 09:14:19;;;;;;;13.03;7.13;;;26.10;44.80;;;;;;4910087;28;88629;-70
2022/05/22 09:16:51;;;;;;;12.43;7.73;;;26.20;44.80;;;;;;4910347;28;90126;-70
2022/05/22 09:19:22;;;;;;;11.07;7.20;;;26.10;44.80;;;;;;4908783;28;89040;-70
2022/05/22 09:21:52;;;;;;;12.97;7.20;;;26.10;44.80;;;;;;4906990;28;89235;-70
2022/05/22 09:24:27;;;;;;;12.87;8.90;;;26.10;44.80;;;;;;4907784;28;88840;-70
2022/05/22 09:26:58;;;;;;;12.57;7.43;;;26.10;44.80;;;;;;4909713;28;90918;-69
2022/05/22 09:29:41;;;;;;;11.30;7.17;;;26.10;44.80;;;;;;4908686;28;90190;-69
2022/05/22 09:32:16;;;;;;;12.90;7.67;;;26.10;44.80;;;;;;4909048;28;89655;-69
2022/05/22 09:34:46;;;;;;;15.27;7.80;;;26.10;44.80;;;;;;4908116;28;88674;-69
2022/05/22 09:37:20;;;;;;;14.13;7.30;;;26.10;44.80;;;;;;4910891;28;90592;-69
2022/05/22 09:39:58;;;;;;;11.07;7.40;;;26.10;44.90;;;;;;4907509;28;89192;-69
2022/05/22 09:42:34;;;;;;;13.80;7.97;;;26.20;45.00;;;;;;4910103;28;89916;-70
2022/05/22 09:45:23;;;;;;;12.53;6.70;;;26.20;45.00;;;;;;4908595;28;88837;-69
2022/05/22 09:48:08;;;;;;;13.10;7.17;;;26.10;45.00;;;;;;4914588;28;91936;-69
2022/05/22 09:50:58;;;;;;;12.83;7.30;;;26.20;45.00;;;;;;4913603;28;89005;-67
2022/05/22 09:53:32;;;;;;;12.70;7.67;;;26.20;45.00;;;;;;4914657;28;88602;-69
2022/05/22 09:56:04;;;;;;;13.73;7.67;;;26.20;45.00;;;;;;4913692;28;88576;-69
2022/05/22 09:58:45;;;;;;;13.23;7.20;;;25.90;44.80;;;;;;4912552;28;89926;-69
2022/05/22 10:01:16;;;;;;;13.23;8.03;;;26.20;45.00;;;;;;4912984;28;89627;-70
2022/05/22 10:03:50;;;;;;;10.67;6.80;;;26.20;45.00;;;;;;4911179;28;88456;-69
2022/05/22 10:06:23;;;;;;;11.20;7.57;;;26.20;45.00;;;;;;4908991;28;88694;-69
2022/05/22 10:08:57;;;;;;;11.20;6.67;;;26.20;45.00;;;;;;4907923;28;93516;-69
2022/05/22 10:11:28;;;;;;;11.90;6.93;;;26.20;45.00;;;;;;4908925;28;89501;-69
2022/05/22 10:14:12;;;;;;;10.80;7.00;;;26.20;45.00;;;;;;4919190;28;88983;-69
2022/05/22 10:16:45;;;;;;;10.93;7.07;;;26.20;45.00;;;;;;4920748;28;88631;-70
2022/05/22 10:19:28;;;;;;;11.73;7.50;;;26.20;45.00;;;;;;4919732;28;90709;-70
2022/05/22 10:22:00;;;;;;;10.40;7.23;;;26.20;45.00;;;;;;4913399;28;90210;-69
2022/05/22 10:24:43;;;;;;;10.80;6.60;;;26.30;45.00;;;;;;4911573;28;88694;-70
2022/05/22 10:27:31;;;;;;;10.63;6.37;;;26.30;45.00;;;;;;4912908;28;90131;-69
2022/05/22 10:30:01;;;;;;;10.97;7.17;;;26.30;44.90;;;;;;4911098;28;90070;-70
2022/05/22 10:32:31;;;;;;;7.27;5.67;;;26.30;44.90;;;;;;4912383;28;91173;-69
2022/05/22 10:35:02;;;;;;;8.33;5.73;;;26.30;44.90;;;;;;4912127;28;92106;-69
2022/05/22 10:37:32;;;;;;;13.70;6.97;;;26.40;44.90;;;;;;4911216;28;88407;-69
2022/05/22 10:40:01;;;;;;;11.57;6.37;;;26.40;44.90;;;;;;4913487;28;90802;-69
2022/05/22 10:42:46;;;;;;;12.00;6.93;;;26.40;44.90;;;;;;4911732;28;89062;-69
2022/05/22 10:45:21;;;;;;;11.17;6.60;;;26.40;44.90;;;;;;4912375;28;88933;-69
2022/05/22 10:47:49;;;;;;;11.27;6.50;;;26.40;44.80;;;;;;4914811;28;88622;-69
2022/05/22 10:50:20;;;;;;;10.43;6.27;;;26.40;44.80;;;;;;4910879;28;89898;-70
2022/05/22 10:52:48;;;;;;;12.17;6.60;;;26.50;44.80;;;;;;4915611;28;90151;-70
2022/05/22 10:55:32;;;;;;;10.70;6.20;;;26.50;44.80;;;;;;4912170;28;90645;-69
2022/05/22 10:58:03;;;;;;;12.03;6.03;;;26.50;44.80;;;;;;4913744;28;88665;-69
2022/05/22 11:00:31;;;;;;;10.30;6.53;;;26.50;44.70;;;;;;4913889;28;90599;-69
2022/05/22 11:03:10;;;;;;;10.23;6.10;;;26.50;44.70;;;;;;4911948;28;90819;-69
2022/05/22 11:05:39;;;;;;;11.23;6.20;;;26.50;44.70;;;;;;4916045;28;88520;-69
2022/05/22 11:08:07;;;;;;;9.90;5.97;;;26.50;44.70;;;;;;4917891;28;90228;-69
2022/05/22 11:10:38;;;;;;;11.10;6.47;;;26.60;44.70;;;;;;4916418;28;90786;-70
2022/05/22 11:13:10;;;;;;;11.33;6.70;;;26.60;44.70;;;;;;4916960;28;92835;-69
2022/05/22 11:15:39;;;;;;;9.80;6.50;;;26.60;44.70;;;;;;4917271;28;88791;-69
2022/05/22 11:18:09;;;;;;;10.10;6.40;;;26.60;44.70;;;;;;4916947;28;88710;-69
2022/05/22 11:20:40;;;;;;;10.30;6.03;;;26.60;44.60;;;;;;4915914;28;92412;-69
2022/05/22 11:23:13;;;;;;;12.27;6.63;;;26.60;44.60;;;;;;4914200;28;89414;-70
2022/05/22 11:25:45;;;;;;;9.60;6.40;;;26.60;44.60;;;;;;4912645;28;88914;-69
2022/05/22 11:28:32;;;;;;;9.93;6.37;;;26.60;44.60;;;;;;4913569;28;89053;-69
2022/05/22 11:31:08;;;;;;;10.40;5.70;;;26.60;44.60;;;;;;4912837;28;89804;-69
2022/05/22 11:33:41;;;;;;;6.70;4.77;;;26.60;44.60;;;;;;4913764;28;89824;-69
2022/05/22 11:36:19;;;;;;;10.70;6.23;;;26.70;44.60;;;;;;4914471;28;91065;-69
2022/05/22 11:38:53;;;;;;;10.83;6.10;;;26.70;44.60;;;;;;4916898;28;89616;-70
2022/05/22 11:41:24;;;;;;;9.77;6.13;;;26.70;44.60;;;;;;4913577;28;89963;-69
2022/05/22 11:44:33;;;;;;;10.83;6.70;;;26.70;44.50;;;;;;4907342;28;88888;-69
2022/05/22 11:47:09;;;;;;;8.63;6.07;;;26.70;44.50;;;;;;4909744;28;88958;-70
2022/05/22 11:49:40;;;;;;;10.60;6.57;;;26.80;44.50;;;;;;4917310;28;89436;-69
2022/05/22 11:55:12;;;;;;;11.07;6.47;;;26.80;44.50;;;;;;4909489;28;92982;-69
2022/05/22 11:57:40;;;;;;;8.73;6.17;;;26.80;44.50;;;;;;4915336;28;90081;-69
2022/05/22 12:00:17;;;;;;;9.87;5.93;;;26.80;44.50;;;;;;4919439;28;88587;-69
2022/05/22 12:03:23;;;;;;;12.00;6.77;;;26.80;44.40;;;;;;4917316;28;89837;-69
2022/05/22 12:05:58;;;;;;;7.07;5.23;;;26.80;44.40;;;;;;4919364;28;92964;-69
2022/05/22 12:08:34;;;;;;;10.70;5.93;;;26.80;44.30;;;;;;4917682;28;90938;-70
2022/05/22 12:11:05;;;;;;;8.53;5.63;;;26.80;44.40;;;;;;4909012;28;88666;-70
2022/05/22 12:13:36;;;;;;;8.43;5.33;;;26.80;44.30;;;;;;4912006;28;93272;-70
2022/05/22 12:16:06;;;;;;;9.63;4.93;;;26.80;44.30;;;;;;4917807;28;91859;-69
2022/05/22 12:18:55;;;;;;;7.13;4.77;;;26.90;44.30;;;;;;4917373;28;88883;-69
2022/05/22 12:21:28;;;;;;;7.03;4.50;;;26.80;44.30;;;;;;4917640;28;88728;-70
2022/05/22 12:23:58;;;;;;;7.30;5.20;;;26.90;44.30;;;;;;4914626;28;89324;-69
2022/05/22 12:26:26;;;;;;;7.97;4.70;;;26.90;44.30;;;;;;4913621;28;90431;-70
2022/05/22 12:28:55;;;;;;;7.77;5.30;;;26.90;44.30;;;;;;4905829;28;91088;-69
2022/05/22 12:31:25;;;;;;;8.07;5.07;;;26.90;44.20;;;;;;4905207;28;88531;-69
2022/05/22 12:33:54;;;;;;;7.93;5.20;;;26.90;44.20;;;;;;4905059;28;92535;-69
2022/05/22 12:36:24;;;;;;;7.80;5.00;;;26.90;44.20;;;;;;4903394;28;90163;-69
2022/05/22 12:38:59;;;;;;;6.50;4.50;;;27.00;44.20;;;;;;4904589;28;88542;-69
2022/05/22 12:41:53;;;;;;;10.20;4.47;;;27.00;44.20;;;;;;4901928;28;88785;-70
2022/05/22 12:44:21;;;;;;;7.43;4.43;;;27.00;44.20;;;;;;4908256;28;90660;-69
2022/05/22 12:46:50;;;;;;;6.97;4.20;;;27.10;44.10;;;;;;4909841;28;89220;-69
2022/05/22 12:49:20;;;;;;;6.17;3.90;;;27.10;44.10;;;;;;4909787;28;89954;-69
2022/05/22 12:51:58;;;;;;;5.47;3.77;;;27.10;44.10;;;;;;4909091;28;90293;-69
2022/05/22 12:54:27;;;;;;;7.03;3.90;;;27.10;44.00;;;;;;4913355;28;89489;-69
2022/05/22 12:57:07;;;;;;;7.57;4.07;;;27.10;44.00;;;;;;4919231;28;90098;-69
2022/05/22 12:59:35;;;;;;;6.97;4.10;;;27.10;43.90;;;;;;4917271;28;89376;-70
2022/05/22 13:02:04;;;;;;;6.80;3.63;;;27.20;43.90;;;;;;4923260;28;88444;-70
2022/05/22 13:04:34;;;;;;;3.40;2.77;;;27.20;43.90;;;;;;4922864;28;89476;-70
2022/05/22 13:07:03;;;;;;;7.30;4.63;;;27.20;43.90;;;;;;4912595;28;88880;-70
2022/05/22 13:09:39;;;;;;;6.20;3.50;;;27.20;43.90;;;;;;4909118;28;90039;-69
2022/05/22 13:12:19;;;;;;;4.87;3.30;;;27.30;43.90;;;;;;4908782;28;88493;-69
2022/05/22 13:14:51;;;;;;;5.93;3.63;;;27.30;43.90;;;;;;4908835;28;90876;-69
2022/05/22 13:17:33;;;;;;;4.20;2.80;;;27.30;43.80;;;;;;4911038;28;89339;-69
2022/05/22 13:20:02;;;;;;;5.20;3.23;;;27.30;43.90;;;;;;4911186;28;89680;-69
2022/05/22 13:22:31;;;;;;;5.83;3.33;;;27.30;43.90;;;;;;4911214;28;88589;-69